createdAt,value
2018-09-16T00:01:22.669Z,3.10
2018-09-16T00:03:49.942Z,2.87
2018-09-16T00:06:17.244Z,3.15
2018-09-16T00:08:44.489Z,3.20
2018-09-16T00:11:11.720Z,3.40
2018-09-16T00:13:38.947Z,3.65
2018-09-16T00:16:06.222Z,4.05
2018-09-16T00:18:33.505Z,3.25
2018-09-16T00:21:00.709Z,3.02
2018-09-16T00:23:27.987Z,3.30
2018-09-16T00:25:55.235Z,3.98
2018-09-16T00:28:22.446Z,3.87
2018-09-16T00:30:49.676Z,4.05
2018-09-16T00:33:16.911Z,3.42
2018-09-16T00:35:44.142Z,3.58
2018-09-16T00:38:11.473Z,3.47
2018-09-16T00:40:38.764Z,3.22
2018-09-16T00:43:06.191Z,3.58
2018-09-16T00:45:33.450Z,3.27
2018-09-16T00:48:00.841Z,3.05
2018-09-16T00:50:28.116Z,3.12
2018-09-16T00:52:55.522Z,3.35
2018-09-16T00:55:22.786Z,3.72
2018-09-16T00:57:50.059Z,3.75
2018-09-16T01:00:17.312Z,4.70
2018-09-16T01:02:44.645Z,3.90
2018-09-16T01:05:12.319Z,3.40
2018-09-16T01:07:40.213Z,3.75
2018-09-16T01:10:07.545Z,3.52
2018-09-16T01:12:34.841Z,3.72
2018-09-16T01:17:52.554Z,3.15
2018-09-16T01:20:19.857Z,4.40
2018-09-16T01:22:47.069Z,4.92
2018-09-16T01:25:14.421Z,4.67
2018-09-16T01:27:41.715Z,4.05
2018-09-16T01:30:09.025Z,4.50
2018-09-16T01:32:36.286Z,4.97
2018-09-16T01:35:03.588Z,4.60
2018-09-16T01:37:36.517Z,3.72
2018-09-16T01:40:03.809Z,3.80
2018-09-16T01:42:31.138Z,4.20
2018-09-16T01:44:58.392Z,4.47
2018-09-16T01:47:25.651Z,4.33
2018-09-16T01:49:53.744Z,3.70
2018-09-16T01:52:21.130Z,3.58
2018-09-16T01:54:48.398Z,4.60
2018-09-16T01:57:15.650Z,3.95
2018-09-16T01:59:42.844Z,3.98
2018-09-16T02:02:10.081Z,4.42
2018-09-16T02:04:40.479Z,3.75
2018-09-16T02:07:07.876Z,3.62
2018-09-16T02:09:35.153Z,4.33
2018-09-16T02:12:03.077Z,4.50
2018-09-16T02:14:30.271Z,3.95
2018-09-16T02:16:57.486Z,4.70
2018-09-16T02:19:24.753Z,4.12
2018-09-16T02:21:51.911Z,3.83
2018-09-16T02:24:19.181Z,4.20
2018-09-16T02:26:46.446Z,3.80
2018-09-16T02:29:13.648Z,3.83
2018-09-16T02:31:41.024Z,4.15
2018-09-16T02:34:08.305Z,4.28
2018-09-16T02:36:35.512Z,3.92
2018-09-16T02:39:03.952Z,3.52
2018-09-16T02:41:31.221Z,3.90
2018-09-16T02:43:58.501Z,4.37
2018-09-16T02:46:25.805Z,4.62
2018-09-16T02:48:53.101Z,5.53
2018-09-16T02:51:20.358Z,4.85
2018-09-16T02:53:47.610Z,4.70
2018-09-16T02:56:14.932Z,5.20
2018-09-16T02:58:42.243Z,4.87
2018-09-16T03:01:09.510Z,5.08
2018-09-16T03:03:36.731Z,4.95
2018-09-16T03:06:03.959Z,4.00
2018-09-16T03:08:31.174Z,4.55
2018-09-16T03:10:58.455Z,4.65
2018-09-16T03:13:25.720Z,4.85
2018-09-16T03:16:15.332Z,5.10
2018-09-16T03:18:42.613Z,4.17
2018-09-16T03:21:09.864Z,4.22
2018-09-16T03:23:37.066Z,4.43
2018-09-16T03:26:04.349Z,4.22
2018-09-16T03:28:31.605Z,4.90
2018-09-16T03:30:58.976Z,5.10
2018-09-16T03:33:26.181Z,4.75
2018-09-16T03:35:53.461Z,4.42
2018-09-16T03:38:20.764Z,4.87
2018-09-16T03:40:48.161Z,4.60
2018-09-16T03:43:15.506Z,4.40
2018-09-16T03:45:42.727Z,4.62
2018-09-16T03:48:10.125Z,4.60
2018-09-16T03:50:37.385Z,4.53
2018-09-16T03:53:04.722Z,4.85
2018-09-16T03:55:31.996Z,4.30
2018-09-16T03:57:59.273Z,4.12
2018-09-16T04:00:26.575Z,5.25
2018-09-16T04:02:53.822Z,4.62
2018-09-16T04:05:21.092Z,4.65
2018-09-16T04:07:49.378Z,4.50
2018-09-16T04:10:16.665Z,5.40
2018-09-16T04:12:43.909Z,5.35
2018-09-16T04:15:11.193Z,6.20
2018-09-16T04:17:38.426Z,5.33
2018-09-16T04:20:05.735Z,6.12
2018-09-16T04:22:32.968Z,5.12
2018-09-16T04:25:00.376Z,4.80
2018-09-16T04:27:27.669Z,6.20
2018-09-16T04:29:54.930Z,5.33
2018-09-16T04:32:22.229Z,5.33
2018-09-16T04:34:49.538Z,5.15
2018-09-16T04:37:16.861Z,5.67
2018-09-16T04:39:44.172Z,4.50
2018-09-16T04:42:11.421Z,4.67
2018-09-16T04:44:38.718Z,4.45
2018-09-16T04:47:06.058Z,4.72
2018-09-16T04:49:33.328Z,5.28
2018-09-16T04:52:00.667Z,5.08
2018-09-16T04:54:27.964Z,4.78
2018-09-16T04:56:55.282Z,5.45
2018-09-16T04:59:22.540Z,5.00
2018-09-16T05:01:49.793Z,4.20
2018-09-16T05:04:17.019Z,4.70
2018-09-16T05:06:44.331Z,5.05
2018-09-16T05:09:11.682Z,5.15
2018-09-16T05:11:38.956Z,4.60
2018-09-16T05:14:06.572Z,4.37
2018-09-16T05:16:34.010Z,4.90
2018-09-16T05:19:01.291Z,4.83
2018-09-16T05:21:28.488Z,5.05
2018-09-16T05:23:55.690Z,5.37
2018-09-16T05:26:23.010Z,4.40
2018-09-16T05:28:50.315Z,4.67
2018-09-16T05:31:17.631Z,4.00
2018-09-16T05:33:44.875Z,5.12
2018-09-16T05:36:12.076Z,5.53
2018-09-16T05:38:39.382Z,5.05
2018-09-16T05:41:06.769Z,5.20
2018-09-16T05:43:33.966Z,5.03
2018-09-16T05:46:01.332Z,4.78
2018-09-16T05:48:28.624Z,4.58
2018-09-16T05:50:55.816Z,4.53
2018-09-16T05:53:23.184Z,5.05
2018-09-16T05:55:50.407Z,5.20
2018-09-16T05:58:17.713Z,5.33
2018-09-16T06:00:44.991Z,5.10
2018-09-16T06:03:12.299Z,4.83
2018-09-16T06:05:39.638Z,5.55
2018-09-16T06:08:07.537Z,5.62
2018-09-16T06:10:34.832Z,5.47
2018-09-16T06:13:02.114Z,6.03
2018-09-16T06:15:29.340Z,5.47
2018-09-16T06:17:56.599Z,4.10
2018-09-16T06:20:23.819Z,5.12
2018-09-16T06:22:51.264Z,5.20
2018-09-16T06:25:18.447Z,4.55
2018-09-16T06:27:45.693Z,5.85
2018-09-16T06:30:12.981Z,5.92
2018-09-16T06:32:40.249Z,5.15
2018-09-16T06:35:07.531Z,4.92
2018-09-16T06:37:34.740Z,4.95
2018-09-16T06:40:02.004Z,6.05
2018-09-16T06:42:41.052Z,5.30
2018-09-16T06:45:09.337Z,5.03
2018-09-16T06:47:37.051Z,5.28
2018-09-16T06:50:04.383Z,5.10
2018-09-16T06:52:31.642Z,5.22
2018-09-16T06:54:58.885Z,6.30
2018-09-16T06:57:26.136Z,4.53
2018-09-16T06:59:53.469Z,5.40
2018-09-16T07:02:20.774Z,4.90
2018-09-16T07:04:48.046Z,5.10
2018-09-16T07:07:15.243Z,4.20
2018-09-16T07:09:42.645Z,4.33
2018-09-16T07:12:09.869Z,4.70
2018-09-16T07:14:37.149Z,4.50
2018-09-16T07:17:04.485Z,4.73
2018-09-16T07:19:31.773Z,4.87
2018-09-16T07:21:58.988Z,3.77
2018-09-16T07:24:26.419Z,3.10
2018-09-16T07:26:53.737Z,4.17
2018-09-16T07:29:20.897Z,3.53
2018-09-16T07:31:48.255Z,3.67
2018-09-16T07:34:15.693Z,3.30
2018-09-16T07:36:42.898Z,3.10
2018-09-16T07:39:10.580Z,3.50
2018-09-16T07:41:38.009Z,3.07
2018-09-16T07:44:05.309Z,3.53
2018-09-16T07:46:32.799Z,3.63
2018-09-16T07:49:00.120Z,4.13
2018-09-16T07:51:27.437Z,3.80
2018-09-16T07:53:54.803Z,2.67
2018-09-16T07:56:22.063Z,3.57
2018-09-16T07:58:49.335Z,2.57
2018-09-16T08:01:16.663Z,2.87
2018-09-16T08:03:43.906Z,2.77
2018-09-16T08:06:11.192Z,2.63
2018-09-16T08:08:38.431Z,2.60
2018-09-16T08:11:05.978Z,3.40
2018-09-16T08:13:33.278Z,3.03
2018-09-16T08:16:00.587Z,3.67
2018-09-16T08:18:27.869Z,3.20
2018-09-16T08:20:55.257Z,2.93
2018-09-16T08:23:22.590Z,3.40
2018-09-16T08:25:49.971Z,3.53
2018-09-16T08:28:17.341Z,3.50
2018-09-16T08:30:44.618Z,3.63
2018-09-16T08:33:11.944Z,3.10
2018-09-16T08:35:39.182Z,3.97
2018-09-16T08:38:06.496Z,3.80
2018-09-16T08:40:33.729Z,3.87
2018-09-16T08:43:00.979Z,3.33
2018-09-16T08:45:28.333Z,3.90
2018-09-16T08:47:55.525Z,3.57
2018-09-16T08:50:22.776Z,3.80
2018-09-16T08:52:50.089Z,3.60
2018-09-16T08:55:17.364Z,4.30
2018-09-16T08:57:44.672Z,4.30
2018-09-16T09:00:11.934Z,3.43
2018-09-16T09:02:39.204Z,4.33
2018-09-16T09:05:07.035Z,3.63
2018-09-16T09:07:34.298Z,4.63
2018-09-16T09:10:01.575Z,3.83
2018-09-16T09:12:28.848Z,3.43
2018-09-16T09:14:56.134Z,4.37
2018-09-16T09:17:23.385Z,3.73
2018-09-16T09:19:50.681Z,4.67
2018-09-16T09:22:17.977Z,4.47
2018-09-16T09:24:45.212Z,3.40
2018-09-16T09:27:12.491Z,3.63
2018-09-16T09:29:39.768Z,5.50
2018-09-16T09:32:07.149Z,3.63
2018-09-16T09:34:34.440Z,4.63
2018-09-16T09:37:01.816Z,3.60
2018-09-16T09:39:29.113Z,4.10
2018-09-16T09:41:56.425Z,4.17
2018-09-16T09:44:23.688Z,4.60
2018-09-16T09:46:50.945Z,4.17
2018-09-16T09:49:18.259Z,4.90
2018-09-16T09:51:45.511Z,4.70
2018-09-16T09:54:12.906Z,4.47
2018-09-16T09:56:40.161Z,3.57
2018-09-16T09:59:07.563Z,4.57
2018-09-16T10:01:34.823Z,4.27
2018-09-16T10:04:02.046Z,5.00
2018-09-16T10:06:29.307Z,5.07
2018-09-16T10:08:56.585Z,4.20
2018-09-16T10:11:23.937Z,3.57
2018-09-16T10:13:51.326Z,4.40
2018-09-16T10:16:18.524Z,3.50
2018-09-16T10:18:45.835Z,3.93
2018-09-16T10:21:13.181Z,3.97
2018-09-16T10:23:40.933Z,5.00
2018-09-16T10:26:08.210Z,4.27
2018-09-16T10:28:35.386Z,3.90
2018-09-16T10:31:02.712Z,3.77
2018-09-16T10:33:29.930Z,4.10
2018-09-16T10:35:59.164Z,3.53
2018-09-16T10:38:26.675Z,4.40
2018-09-16T10:40:53.942Z,4.07
2018-09-16T10:43:21.219Z,4.57
2018-09-16T10:45:48.483Z,3.80
2018-09-16T10:48:15.759Z,3.87
2018-09-16T10:50:43.030Z,4.30
2018-09-16T10:53:10.309Z,3.67
2018-09-16T10:55:37.627Z,3.53
2018-09-16T10:58:04.969Z,4.90
2018-09-16T11:00:32.255Z,3.53
2018-09-16T11:10:01.359Z,3.50
2018-09-16T11:12:28.601Z,3.40
2018-09-16T11:14:55.865Z,3.43
2018-09-16T11:17:23.168Z,2.77
2018-09-16T11:19:50.421Z,3.77
2018-09-16T11:22:17.694Z,3.30
2018-09-16T11:24:45.080Z,3.70
2018-09-16T11:27:12.411Z,4.63
2018-09-16T11:29:39.678Z,2.73
2018-09-16T11:32:06.890Z,3.10
2018-09-16T11:34:34.165Z,3.50
2018-09-16T11:37:01.437Z,3.40
2018-09-16T11:39:28.843Z,3.50
2018-09-16T11:41:56.120Z,3.80
2018-09-16T11:44:23.380Z,3.83
2018-09-16T11:46:50.673Z,4.10
2018-09-16T11:49:17.962Z,3.07
2018-09-16T11:51:45.514Z,3.30
2018-09-16T11:54:12.701Z,3.30
2018-09-16T11:56:40.010Z,3.50
2018-09-16T11:59:07.269Z,3.80
2018-09-16T12:01:34.526Z,3.13
2018-09-16T12:04:01.842Z,3.40
2018-09-16T12:06:29.196Z,3.83
2018-09-16T12:08:56.470Z,3.40
2018-09-16T12:11:23.876Z,3.43
2018-09-16T12:13:51.160Z,3.40
2018-09-16T12:16:18.475Z,3.60
2018-09-16T12:18:45.743Z,2.97
2018-09-16T12:21:13.022Z,3.70
2018-09-16T12:23:40.295Z,3.27
2018-09-16T12:26:07.592Z,3.10
2018-09-16T12:28:34.825Z,3.17
2018-09-16T12:31:02.095Z,2.77
2018-09-16T12:33:29.366Z,3.87
2018-09-16T12:35:58.422Z,3.87
2018-09-16T12:38:25.739Z,2.90
2018-09-16T12:40:53.244Z,2.60
2018-09-16T12:43:20.784Z,3.37
2018-09-16T12:45:48.174Z,3.50
2018-09-16T12:48:15.425Z,3.20
2018-09-16T12:50:42.707Z,4.90
2018-09-16T12:53:10.037Z,3.03
2018-09-16T12:55:37.333Z,2.40
2018-09-16T12:58:04.734Z,2.77
2018-09-16T13:00:32.003Z,3.47
2018-09-16T13:02:59.276Z,3.10
2018-09-16T13:05:26.585Z,3.00
2018-09-16T13:07:53.812Z,3.27
2018-09-16T13:10:21.070Z,3.10
2018-09-16T13:12:48.351Z,3.20
2018-09-16T13:15:15.635Z,2.80
2018-09-16T13:17:42.924Z,2.90
2018-09-16T13:20:10.191Z,2.77
2018-09-16T13:22:37.524Z,2.50
2018-09-16T13:25:04.828Z,2.93
2018-09-16T13:27:32.114Z,2.80
2018-09-16T13:29:59.396Z,2.90
2018-09-16T13:32:26.642Z,3.10
2018-09-16T13:34:54.029Z,3.07
2018-09-16T13:37:21.327Z,3.40
2018-09-16T13:39:48.588Z,2.93
2018-09-16T13:42:15.887Z,2.93
2018-09-16T13:44:43.129Z,2.60
2018-09-16T13:47:10.362Z,2.97
2018-09-16T13:49:37.533Z,3.67
2018-09-16T13:52:04.807Z,3.13
2018-09-16T13:54:32.044Z,3.27
2018-09-16T13:56:59.371Z,3.57
2018-09-16T13:59:26.702Z,3.17
2018-09-16T14:01:53.939Z,2.90
2018-09-16T14:04:21.250Z,3.30
2018-09-16T14:06:48.505Z,2.93
2018-09-16T14:09:15.778Z,2.83
2018-09-16T14:11:43.087Z,3.60
2018-09-16T14:14:10.384Z,3.63
2018-09-16T14:16:37.852Z,3.63
2018-09-16T14:19:05.176Z,3.27
2018-09-16T14:21:32.444Z,2.60
2018-09-16T14:23:59.686Z,2.70
2018-09-16T14:26:26.942Z,3.40
2018-09-16T14:28:54.243Z,3.07
2018-09-16T14:31:21.630Z,2.90
2018-09-16T14:33:48.942Z,2.50
2018-09-16T14:36:16.311Z,3.27
2018-09-16T14:38:43.584Z,3.43
2018-09-16T14:41:11.215Z,3.23
2018-09-16T14:43:38.548Z,3.13
2018-09-16T14:46:05.867Z,3.03
2018-09-16T14:48:33.140Z,2.80
2018-09-16T14:51:00.445Z,2.63
2018-09-16T14:53:27.742Z,2.50
2018-09-16T14:55:54.991Z,3.17
2018-09-16T14:58:22.294Z,3.30
2018-09-16T15:00:49.724Z,2.57
2018-09-16T15:03:17.051Z,3.20
2018-09-16T15:05:44.298Z,2.60
2018-09-16T15:08:16.092Z,2.93
2018-09-16T15:10:43.449Z,2.80
2018-09-16T15:13:10.774Z,4.20
2018-09-16T15:15:38.047Z,2.60
2018-09-16T15:18:05.456Z,3.47
2018-09-16T15:20:32.769Z,3.30
2018-09-16T15:23:00.024Z,3.27
2018-09-16T15:25:27.290Z,2.97
2018-09-16T15:27:54.505Z,3.03
2018-09-16T15:30:21.879Z,3.23
2018-09-16T15:32:49.107Z,3.60
2018-09-16T15:35:16.397Z,3.30
2018-09-16T15:37:43.639Z,3.17
2018-09-16T15:40:10.949Z,3.40
2018-09-16T15:42:38.273Z,2.90
2018-09-16T15:45:05.545Z,3.00
2018-09-16T15:47:32.834Z,2.60
2018-09-16T15:50:00.167Z,2.90
2018-09-16T15:52:27.427Z,3.40
2018-09-16T15:54:54.743Z,3.20
2018-09-16T15:57:22.043Z,3.30
2018-09-16T15:59:49.319Z,3.63
2018-09-16T16:02:16.520Z,3.07
2018-09-16T16:04:43.733Z,3.00
2018-09-16T16:07:11.150Z,3.13
2018-09-16T16:09:38.458Z,3.43
2018-09-16T16:12:05.742Z,3.90
2018-09-16T16:14:33.052Z,3.03
2018-09-16T16:17:00.330Z,3.83
2018-09-16T16:19:27.567Z,3.53
2018-09-16T16:21:54.793Z,3.70
2018-09-16T16:24:22.082Z,3.47
2018-09-16T16:26:49.503Z,3.50
2018-09-16T16:29:16.774Z,2.53
2018-09-16T16:31:44.052Z,3.07
2018-09-16T16:34:11.332Z,3.53
2018-09-16T16:36:38.578Z,3.33
2018-09-16T16:39:07.141Z,2.97
2018-09-16T16:41:34.381Z,3.63
2018-09-16T16:44:01.569Z,3.20
2018-09-16T16:46:28.797Z,3.23
2018-09-16T16:48:56.055Z,3.30
2018-09-16T16:51:23.306Z,3.30
2018-09-16T16:53:50.551Z,3.30
2018-09-16T16:56:17.790Z,3.20
2018-09-16T16:58:44.997Z,2.97
2018-09-16T17:01:12.294Z,3.40
2018-09-16T17:03:39.729Z,3.40
2018-09-16T17:06:07.038Z,3.30
2018-09-16T17:08:34.236Z,3.20
2018-09-16T17:11:01.544Z,3.07
2018-09-16T17:13:28.755Z,2.97
2018-09-16T17:15:56.063Z,3.27
2018-09-16T17:18:23.303Z,3.43
2018-09-16T17:20:50.532Z,3.20
2018-09-16T17:23:17.805Z,3.13
2018-09-16T17:25:45.100Z,3.60
2018-09-16T17:28:12.382Z,2.90
2018-09-16T17:30:39.615Z,3.77
2018-09-16T17:33:06.840Z,2.90
2018-09-16T17:35:34.216Z,4.20
2018-09-16T17:38:01.413Z,3.20
2018-09-16T17:40:28.884Z,2.90
2018-09-16T17:42:56.156Z,3.60
2018-09-16T17:45:23.485Z,2.97
2018-09-16T17:47:50.692Z,3.07
2018-09-16T17:50:17.929Z,2.70
2018-09-16T17:52:45.208Z,2.70
2018-09-16T17:55:12.492Z,2.53
2018-09-16T17:57:39.739Z,3.23
2018-09-16T18:00:07.163Z,2.87
2018-09-16T18:02:34.395Z,2.50
2018-09-16T18:05:01.729Z,3.90
2018-09-16T18:07:29.062Z,3.20
2018-09-16T18:09:56.360Z,3.30
2018-09-16T18:12:23.654Z,2.70
2018-09-16T18:14:50.958Z,3.50
2018-09-16T18:17:18.302Z,3.57
2018-09-16T18:19:45.578Z,3.17
2018-09-16T18:22:12.875Z,2.37
2018-09-16T18:24:40.129Z,2.90
2018-09-16T18:27:07.373Z,2.80
2018-09-16T18:29:34.616Z,3.20
2018-09-16T18:32:01.916Z,2.87
2018-09-16T18:34:29.205Z,3.80
2018-09-16T18:36:56.514Z,3.50
2018-09-16T18:39:23.893Z,3.77
2018-09-16T18:41:51.203Z,3.00
2018-09-16T18:44:18.520Z,3.23
2018-09-16T18:46:45.787Z,3.17
2018-09-16T18:49:13.045Z,3.63
2018-09-16T18:51:40.413Z,3.27
2018-09-16T18:54:07.631Z,2.83
2018-09-16T18:56:34.931Z,3.47
2018-09-16T18:59:02.235Z,2.50
2018-09-16T19:01:29.496Z,3.53
2018-09-16T19:03:56.769Z,3.90
2018-09-16T19:06:24.011Z,3.20
2018-09-16T19:08:51.393Z,3.90
2018-09-16T19:14:49.954Z,3.27
2018-09-16T19:17:17.315Z,3.80
2018-09-16T19:19:44.609Z,3.60
2018-09-16T19:22:11.956Z,3.50
2018-09-16T19:24:39.309Z,3.87
2018-09-16T19:27:06.593Z,2.90
2018-09-16T19:29:34.006Z,3.40
2018-09-16T19:32:01.353Z,3.33
2018-09-16T19:34:28.655Z,3.23
2018-09-16T19:36:55.936Z,3.13
2018-09-16T19:39:23.180Z,3.30
2018-09-16T19:41:50.498Z,3.37
2018-09-16T19:44:17.814Z,2.80
2018-09-16T19:46:45.063Z,3.00
2018-09-16T19:49:12.331Z,3.23
2018-09-16T19:51:39.554Z,3.80
2018-09-16T19:54:06.846Z,3.60
2018-09-16T19:56:34.066Z,3.00
2018-09-16T19:59:01.381Z,3.20
2018-09-16T20:01:28.596Z,4.07
2018-09-16T20:03:55.885Z,3.33
2018-09-16T20:06:23.431Z,3.57
2018-09-16T20:08:50.709Z,3.10
2018-09-16T20:11:18.024Z,3.20
2018-09-16T20:13:45.235Z,4.33
2018-09-16T20:16:12.551Z,3.60
2018-09-16T20:18:39.846Z,3.50
2018-09-16T20:21:07.176Z,3.30
2018-09-16T20:23:34.417Z,3.63
2018-09-16T20:26:01.843Z,3.33
2018-09-16T20:28:29.064Z,4.83
2018-09-16T20:30:56.421Z,3.30
2018-09-16T20:33:23.660Z,3.50
2018-09-16T20:35:50.935Z,4.23
2018-09-16T20:38:18.216Z,3.93
2018-09-16T20:40:45.465Z,4.03
2018-09-16T20:43:12.772Z,3.30
2018-09-16T20:45:40.082Z,3.97
2018-09-16T20:48:07.314Z,3.17
2018-09-16T20:50:34.543Z,3.80
2018-09-16T20:53:01.794Z,3.87
2018-09-16T20:55:29.074Z,3.80
2018-09-16T20:57:56.403Z,4.53
2018-09-16T21:00:23.595Z,3.77
2018-09-16T21:02:51.115Z,3.97
2018-09-16T21:05:18.406Z,3.53
2018-09-16T21:07:45.726Z,4.20
2018-09-16T21:10:13.176Z,4.47
2018-09-16T21:12:40.384Z,4.40
2018-09-16T21:15:07.700Z,4.77
2018-09-16T21:17:34.970Z,4.30
2018-09-16T21:20:02.417Z,4.33
2018-09-16T21:22:29.627Z,4.27
2018-09-16T21:24:57.045Z,4.20
2018-09-16T21:27:24.322Z,4.37
2018-09-16T21:29:51.656Z,4.50
2018-09-16T21:32:19.196Z,4.10
2018-09-16T21:34:46.558Z,4.50
2018-09-16T21:37:13.816Z,3.87
2018-09-16T21:39:41.269Z,4.77
2018-09-16T21:42:08.587Z,4.00
2018-09-16T21:44:36.607Z,4.70
2018-09-16T21:47:03.959Z,4.80
2018-09-16T21:49:31.179Z,4.60
2018-09-16T21:51:58.466Z,3.83
2018-09-16T21:54:25.669Z,4.27
2018-09-16T21:56:52.962Z,4.33
2018-09-16T21:59:20.240Z,4.43
2018-09-16T22:01:47.479Z,4.70
2018-09-16T22:04:14.736Z,4.23
2018-09-16T22:06:41.985Z,4.37
2018-09-16T22:09:10.082Z,4.80
2018-09-16T22:11:37.389Z,5.40
2018-09-16T22:14:04.872Z,4.57
2018-09-16T22:16:32.228Z,4.50
2018-09-16T22:18:59.470Z,5.13
2018-09-16T22:21:26.755Z,4.30
2018-09-16T22:23:54.044Z,5.07
2018-09-16T22:26:21.298Z,4.50
2018-09-16T22:28:48.615Z,4.57
2018-09-16T22:31:15.946Z,4.70
2018-09-16T22:33:43.194Z,5.67
2018-09-16T22:36:10.545Z,4.80
2018-09-16T22:38:37.865Z,5.30
2018-09-16T22:41:05.203Z,4.60
2018-09-16T22:43:32.463Z,5.03
2018-09-16T22:45:59.766Z,5.00
2018-09-16T22:48:27.008Z,5.50
2018-09-16T22:50:54.320Z,5.07
2018-09-16T22:53:21.582Z,5.13
2018-09-16T22:55:48.893Z,5.37
2018-09-16T22:58:16.145Z,5.07
2018-09-16T23:00:43.404Z,5.50
2018-09-16T23:03:10.643Z,5.20
2018-09-16T23:05:38.028Z,5.10
2018-09-16T23:08:05.316Z,5.40
2018-09-16T23:10:32.546Z,4.77
2018-09-16T23:12:59.824Z,5.60
2018-09-16T23:15:27.048Z,6.37
2018-09-16T23:17:54.356Z,5.40
2018-09-16T23:20:21.585Z,6.50
2018-09-16T23:22:48.861Z,6.50
2018-09-16T23:25:16.105Z,6.67
2018-09-16T23:27:43.281Z,7.20
2018-09-16T23:30:10.494Z,6.00
2018-09-16T23:32:37.817Z,7.27
2018-09-16T23:35:05.277Z,6.07
2018-09-16T23:37:32.558Z,5.73
2018-09-16T23:39:59.916Z,5.90
2018-09-16T23:42:27.185Z,7.50
2018-09-16T23:44:54.505Z,6.73
2018-09-16T23:47:21.947Z,7.30
2018-09-16T23:49:49.282Z,6.80
2018-09-16T23:52:16.515Z,6.30
2018-09-16T23:54:43.758Z,6.00
2018-09-16T23:57:17.340Z,5.27
2018-09-16T23:59:44.678Z,6.27
